createdAt,value
2019-05-06T00:00:25.645Z,4.10
2019-05-06T00:02:54.758Z,4.10
2019-05-06T00:05:25.511Z,4.10
2019-05-06T00:07:54.755Z,4.00
2019-05-06T00:10:33.968Z,4.00
2019-05-06T00:13:02.001Z,4.00
2019-05-06T00:15:31.050Z,4.00
2019-05-06T00:17:59.854Z,3.90
2019-05-06T00:20:28.646Z,3.90
2019-05-06T00:23:05.016Z,3.80
2019-05-06T00:25:44.468Z,3.80
2019-05-06T00:28:24.441Z,3.80
2019-05-06T00:31:09.577Z,3.70
2019-05-06T00:33:28.441Z,3.70
2019-05-06T00:36:00.213Z,3.70
2019-05-06T00:38:27.564Z,3.70
2019-05-06T00:40:57.964Z,3.80
2019-05-06T00:43:26.766Z,3.80
2019-05-06T00:45:55.524Z,3.90
2019-05-06T00:48:24.505Z,3.90
2019-05-06T00:50:53.634Z,4.00
2019-05-06T00:53:24.144Z,4.00
2019-05-06T00:55:53.792Z,4.10
2019-05-06T00:58:23.811Z,4.10
2019-05-06T01:00:53.778Z,4.10
2019-05-06T01:03:23.911Z,4.10
2019-05-06T01:05:54.263Z,4.10
2019-05-06T01:08:24.067Z,4.20
2019-05-06T01:10:54.477Z,4.20
2019-05-06T01:13:41.140Z,4.30
2019-05-06T01:16:11.550Z,4.30
2019-05-06T01:18:40.367Z,4.40
2019-05-06T01:21:11.842Z,4.40
2019-05-06T01:23:44.554Z,4.50
2019-05-06T01:26:15.293Z,4.50
2019-05-06T01:28:44.852Z,4.60
2019-05-06T01:31:14.149Z,4.60
2019-05-06T01:33:45.056Z,4.70
2019-05-06T01:36:15.295Z,4.70
2019-05-06T01:38:46.098Z,4.70
2019-05-06T01:41:16.456Z,4.80
2019-05-06T01:43:46.046Z,4.80
2019-05-06T01:46:14.810Z,4.80
2019-05-06T01:48:49.740Z,4.80
2019-05-06T01:51:20.217Z,4.80
2019-05-06T01:53:49.687Z,4.90
2019-05-06T01:56:18.595Z,4.90
2019-05-06T01:58:47.351Z,4.90
2019-05-06T02:01:16.227Z,4.90
2019-05-06T02:03:44.993Z,4.90
2019-05-06T02:06:14.249Z,4.90
2019-05-06T02:08:44.711Z,4.90
2019-05-06T02:11:14.827Z,4.90
2019-05-06T02:13:44.445Z,4.90
2019-05-06T02:16:14.666Z,4.90
2019-05-06T02:18:44.791Z,4.90
2019-05-06T02:21:15.469Z,4.90
2019-05-06T02:23:57.745Z,4.90
2019-05-06T02:26:26.505Z,5.00
2019-05-06T02:28:56.952Z,5.00
2019-05-06T02:31:45.994Z,5.00
2019-05-06T02:34:36.503Z,5.00
2019-05-06T02:37:14.659Z,5.00
2019-05-06T02:39:43.774Z,5.00
2019-05-06T02:42:13.191Z,5.00
2019-05-06T02:44:44.196Z,5.00
2019-05-06T02:47:14.108Z,5.00
2019-05-06T02:49:44.540Z,5.00
2019-05-06T02:52:14.006Z,5.00
2019-05-06T02:54:43.108Z,5.00
2019-05-06T02:57:13.221Z,5.00
2019-05-06T02:59:44.174Z,5.00
2019-05-06T03:02:14.005Z,5.00
2019-05-06T03:04:43.691Z,5.00
2019-05-06T03:07:14.598Z,5.00
2019-05-06T03:09:44.482Z,5.00
2019-05-06T03:12:13.888Z,5.00
2019-05-06T03:14:43.632Z,5.00
2019-05-06T03:17:13.991Z,5.00
2019-05-06T03:19:46.047Z,5.00
2019-05-06T03:22:27.841Z,5.00
2019-05-06T03:24:57.728Z,5.00
2019-05-06T03:27:26.532Z,5.00
2019-05-06T03:29:55.235Z,5.00
2019-05-06T03:32:30.464Z,5.00
2019-05-06T03:35:16.541Z,4.90
2019-05-06T03:37:24.875Z,4.90
2019-05-06T03:39:53.633Z,5.00
2019-05-06T03:42:23.095Z,5.00
2019-05-06T03:44:53.832Z,5.00
2019-05-06T03:47:24.327Z,5.00
2019-05-06T03:49:54.493Z,5.00
2019-05-06T03:52:25.027Z,5.00
2019-05-06T03:54:54.528Z,5.10
2019-05-06T03:57:24.067Z,5.10
2019-05-06T03:59:53.381Z,5.10
2019-05-06T04:02:24.115Z,5.10
2019-05-06T04:04:55.876Z,5.10
2019-05-06T04:07:23.773Z,5.10
2019-05-06T04:09:53.595Z,5.10
2019-05-06T04:12:23.867Z,5.10
2019-05-06T04:14:54.159Z,5.10
2019-05-06T04:17:43.984Z,5.20
2019-05-06T04:20:16.946Z,5.20
2019-05-06T04:22:47.751Z,5.20
2019-05-06T04:25:43.527Z,5.10
2019-05-06T04:28:14.094Z,5.10
2019-05-06T04:30:43.198Z,5.10
2019-05-06T04:33:16.919Z,5.20
2019-05-06T04:35:43.209Z,5.10
2019-05-06T04:38:13.846Z,5.10
2019-05-06T04:40:43.964Z,5.10
2019-05-06T04:43:13.580Z,5.20
2019-05-06T04:45:43.253Z,5.20
2019-05-06T04:48:14.356Z,5.20
2019-05-06T04:50:44.417Z,5.20
2019-05-06T04:53:14.071Z,5.20
2019-05-06T04:55:43.894Z,5.20
2019-05-06T04:58:13.534Z,5.30
2019-05-06T05:00:44.563Z,5.40
2019-05-06T05:03:14.144Z,5.40
2019-05-06T05:05:44.807Z,5.40
2019-05-06T05:08:14.257Z,5.40
2019-05-06T05:10:56.885Z,5.40
2019-05-06T05:13:27.294Z,5.40
2019-05-06T05:16:06.230Z,5.50
2019-05-06T05:18:37.157Z,5.50
2019-05-06T05:21:05.948Z,5.60
2019-05-06T05:23:34.750Z,5.60
2019-05-06T05:26:03.814Z,5.60
2019-05-06T05:28:32.760Z,5.60
2019-05-06T05:31:03.042Z,5.60
2019-05-06T05:33:32.721Z,5.70
2019-05-06T05:36:02.128Z,5.70
2019-05-06T05:38:32.074Z,5.70
2019-05-06T05:41:03.083Z,5.70
2019-05-06T05:43:33.486Z,5.80
2019-05-06T05:46:03.111Z,5.80
2019-05-06T05:48:36.256Z,5.80
2019-05-06T05:51:05.016Z,5.80
2019-05-06T05:53:34.019Z,5.80
2019-05-06T05:56:02.822Z,5.90
2019-05-06T05:58:33.030Z,5.90
2019-05-06T06:01:04.192Z,6.00
2019-05-06T06:03:32.809Z,5.90
2019-05-06T06:06:03.061Z,6.10
2019-05-06T06:08:32.333Z,6.20
2019-05-06T06:11:05.237Z,6.20
2019-05-06T06:13:34.001Z,6.20
2019-05-06T06:16:04.538Z,6.20
2019-05-06T06:18:44.408Z,6.40
2019-05-06T06:21:27.090Z,6.60
2019-05-06T06:23:52.917Z,6.60
2019-05-06T06:26:22.708Z,6.60
2019-05-06T06:28:52.265Z,6.70
2019-05-06T06:31:33.194Z,6.80
2019-05-06T06:34:03.737Z,6.80
2019-05-06T06:36:42.870Z,7.00
2019-05-06T06:39:16.278Z,7.00
2019-05-06T06:41:45.180Z,7.00
2019-05-06T06:44:22.133Z,7.00
2019-05-06T06:46:52.400Z,7.00
2019-05-06T06:49:22.228Z,7.10
2019-05-06T06:51:53.179Z,7.20
2019-05-06T06:54:22.851Z,7.30
2019-05-06T06:57:05.067Z,7.40
2019-05-06T06:59:25.767Z,7.40
2019-05-06T07:01:56.170Z,7.40
2019-05-06T07:04:28.686Z,7.50
2019-05-06T07:06:59.144Z,7.60
2019-05-06T07:09:29.715Z,7.60
2019-05-06T07:11:58.286Z,7.60
2019-05-06T07:14:27.056Z,7.70
2019-05-06T07:16:55.786Z,7.80
2019-05-06T07:19:28.969Z,8.00
2019-05-06T07:21:58.960Z,8.00
2019-05-06T07:24:27.751Z,8.00
2019-05-06T07:27:02.871Z,8.00
2019-05-06T07:29:32.747Z,8.00
2019-05-06T07:32:02.621Z,8.00
2019-05-06T07:34:32.206Z,8.00
2019-05-06T07:37:03.266Z,7.90
2019-05-06T07:39:33.293Z,8.20
2019-05-06T07:42:03.352Z,8.30
2019-05-06T07:44:36.756Z,8.40
2019-05-06T07:47:07.207Z,8.30
2019-05-06T07:49:35.970Z,8.20
2019-05-06T07:52:04.735Z,8.10
2019-05-06T07:54:33.496Z,8.00
2019-05-06T07:57:02.499Z,8.10
2019-05-06T07:59:33.254Z,8.20
2019-05-06T08:02:02.277Z,8.50
2019-05-06T08:04:32.459Z,8.50
2019-05-06T08:07:03.190Z,8.50
2019-05-06T08:09:32.602Z,8.80
2019-05-06T08:12:02.761Z,9.00
2019-05-06T08:14:43.592Z,9.20
2019-05-06T08:17:18.426Z,9.40
2019-05-06T08:19:47.207Z,9.50
2019-05-06T08:22:23.345Z,9.70
2019-05-06T08:24:53.184Z,9.80
2019-05-06T08:27:22.772Z,9.90
2019-05-06T08:29:52.625Z,9.80
2019-05-06T08:32:22.751Z,9.90
2019-05-06T08:34:52.427Z,10.00
2019-05-06T08:37:22.958Z,10.00
2019-05-06T08:39:52.698Z,10.10
2019-05-06T08:42:22.435Z,10.00
2019-05-06T08:44:53.076Z,10.30
2019-05-06T08:47:22.330Z,10.70
2019-05-06T08:50:07.683Z,10.50
2019-05-06T08:52:54.295Z,10.10
2019-05-06T08:55:27.452Z,9.80
2019-05-06T08:57:56.206Z,9.80
2019-05-06T09:00:25.066Z,9.80
2019-05-06T09:02:53.855Z,10.00
2019-05-06T09:05:22.639Z,10.30
2019-05-06T09:07:52.365Z,10.50
2019-05-06T09:10:22.703Z,10.50
2019-05-06T09:12:52.516Z,10.70
2019-05-06T09:15:21.965Z,10.80
2019-05-06T09:17:52.619Z,11.20
2019-05-06T09:20:23.266Z,11.10
2019-05-06T09:22:52.150Z,11.30
2019-05-06T09:25:22.993Z,11.30
2019-05-06T09:27:55.792Z,11.30
2019-05-06T09:30:48.465Z,11.40
2019-05-06T09:33:18.780Z,10.90
2019-05-06T09:35:47.671Z,10.80
2019-05-06T09:38:16.421Z,11.00
2019-05-06T09:40:45.213Z,11.00
2019-05-06T09:43:14.013Z,11.10
2019-05-06T09:45:42.776Z,11.10
2019-05-06T09:48:29.178Z,11.40
2019-05-06T09:50:57.864Z,11.40
2019-05-06T09:53:28.241Z,11.20
2019-05-06T09:56:04.549Z,11.00
2019-05-06T09:58:35.347Z,11.10
2019-05-06T10:01:04.593Z,11.40
2019-05-06T10:03:33.383Z,11.50
2019-05-06T10:06:02.662Z,11.70
2019-05-06T10:08:32.376Z,11.60
2019-05-06T10:11:03.188Z,11.60
2019-05-06T10:13:32.768Z,11.30
2019-05-06T10:16:02.990Z,11.20
2019-05-06T10:18:32.011Z,11.30
2019-05-06T10:21:00.756Z,11.50
2019-05-06T10:23:29.574Z,11.70
2019-05-06T10:25:58.354Z,11.50
2019-05-06T10:28:33.485Z,11.50
2019-05-06T10:31:03.832Z,11.40
2019-05-06T10:33:33.695Z,11.20
2019-05-06T10:36:04.040Z,11.10
2019-05-06T10:38:55.122Z,11.10
2019-05-06T10:41:26.818Z,11.20
2019-05-06T10:44:18.004Z,11.00
2019-05-06T10:46:46.688Z,11.00
2019-05-06T10:49:15.637Z,11.10
2019-05-06T10:51:46.043Z,11.10
2019-05-06T10:54:14.798Z,11.30
2019-05-06T10:56:57.600Z,11.40
2019-05-06T10:59:26.387Z,11.40
2019-05-06T11:01:56.839Z,11.40
2019-05-06T11:04:25.595Z,11.20
2019-05-06T11:06:54.406Z,11.20
2019-05-06T11:09:23.178Z,11.20
2019-05-06T11:11:51.977Z,11.40
2019-05-06T11:14:22.738Z,11.50
2019-05-06T11:16:51.193Z,11.50
2019-05-06T11:19:22.298Z,11.50
2019-05-06T11:21:52.926Z,11.80
2019-05-06T11:24:22.977Z,12.10
2019-05-06T11:26:53.273Z,12.10
2019-05-06T11:29:23.154Z,12.00
2019-05-06T11:32:02.447Z,12.00
2019-05-06T11:34:38.877Z,11.90
2019-05-06T11:37:25.566Z,12.00
2019-05-06T11:39:54.341Z,12.10
2019-05-06T11:42:30.947Z,12.30
2019-05-06T11:44:53.553Z,12.70
2019-05-06T11:47:23.333Z,12.50
2019-05-06T11:49:56.379Z,12.60
2019-05-06T11:52:24.288Z,12.70
2019-05-06T11:54:53.145Z,12.40
2019-05-06T11:57:23.148Z,12.60
2019-05-06T11:59:52.787Z,12.50
2019-05-06T12:02:23.455Z,12.40
2019-05-06T12:04:52.835Z,12.50
2019-05-06T12:07:24.512Z,12.40
2019-05-06T12:09:54.037Z,12.60
2019-05-06T12:12:23.263Z,12.50
2019-05-06T12:14:52.838Z,12.60
2019-05-06T12:17:22.311Z,12.80
2019-05-06T12:19:52.784Z,12.60
2019-05-06T12:22:22.254Z,12.70
2019-05-06T12:24:52.530Z,12.70
2019-05-06T12:27:39.367Z,12.80
2019-05-06T12:30:08.227Z,12.90
2019-05-06T12:32:38.656Z,13.00
2019-05-06T12:35:08.156Z,13.00
2019-05-06T12:37:38.306Z,13.70
2019-05-06T12:40:07.382Z,13.80
2019-05-06T12:42:37.831Z,13.80
2019-05-06T12:45:08.633Z,13.60
2019-05-06T12:47:39.062Z,13.30
2019-05-06T12:50:08.029Z,13.20
2019-05-06T12:52:36.767Z,13.20
2019-05-06T12:55:20.303Z,12.80
2019-05-06T12:57:37.303Z,12.50
2019-05-06T13:00:08.192Z,12.30
2019-05-06T13:02:36.921Z,12.00
2019-05-06T13:05:07.009Z,11.80
2019-05-06T13:07:37.433Z,11.80
2019-05-06T13:10:06.929Z,11.60
2019-05-06T13:12:36.531Z,11.50
2019-05-06T13:15:08.158Z,11.50
2019-05-06T13:17:37.224Z,11.30
2019-05-06T13:20:09.120Z,11.10
2019-05-06T13:22:53.442Z,10.70
2019-05-06T13:25:23.369Z,10.40
2019-05-06T13:27:52.863Z,10.30
2019-05-06T13:30:22.852Z,10.10
2019-05-06T13:32:56.052Z,8.20
2019-05-06T13:35:24.782Z,10.00
2019-05-06T13:37:53.546Z,10.00
2019-05-06T13:40:22.950Z,10.00
2019-05-06T13:43:08.942Z,10.00
2019-05-06T13:45:38.514Z,10.10
2019-05-06T13:48:08.938Z,10.30
2019-05-06T13:50:45.300Z,10.50
2019-05-06T13:53:14.804Z,10.60
2019-05-06T13:55:43.669Z,10.60
2019-05-06T13:58:12.614Z,10.40
2019-05-06T14:00:42.599Z,10.40
2019-05-06T14:03:11.500Z,10.40
2019-05-06T14:05:42.381Z,10.20
2019-05-06T14:08:12.893Z,10.20
2019-05-06T14:10:42.342Z,10.10
2019-05-06T14:13:12.876Z,9.80
2019-05-06T14:15:42.148Z,9.80
2019-05-06T14:18:13.103Z,9.60
2019-05-06T14:20:42.910Z,9.70
2019-05-06T14:23:12.900Z,9.80
2019-05-06T14:25:43.575Z,9.90
2019-05-06T14:28:13.948Z,9.80
2019-05-06T14:30:44.267Z,9.80
2019-05-06T14:33:23.818Z,9.50
2019-05-06T14:35:52.789Z,9.40
2019-05-06T14:38:24.550Z,9.40
2019-05-06T14:41:04.389Z,9.20
2019-05-06T14:43:33.009Z,9.20
2019-05-06T14:46:02.073Z,8.90
2019-05-06T14:48:32.922Z,8.90
2019-05-06T14:51:02.268Z,8.90
2019-05-06T14:53:32.994Z,8.90
2019-05-06T14:56:06.289Z,9.10
2019-05-06T14:58:35.021Z,9.20
2019-05-06T15:01:03.894Z,9.30
2019-05-06T15:03:32.754Z,9.40
2019-05-06T15:06:02.574Z,9.50
2019-05-06T15:08:32.215Z,9.70
2019-05-06T15:11:03.178Z,9.90
2019-05-06T15:13:32.255Z,10.10
2019-05-06T15:16:03.457Z,10.20
2019-05-06T15:18:32.497Z,10.20
2019-05-06T15:21:29.094Z,10.10
2019-05-06T15:23:31.752Z,10.00
2019-05-06T15:26:02.903Z,9.90
2019-05-06T15:28:33.579Z,9.90
2019-05-06T15:31:05.938Z,9.70
2019-05-06T15:33:36.282Z,9.60
2019-05-06T15:36:06.644Z,9.60
2019-05-06T15:38:35.418Z,9.60
2019-05-06T15:41:04.216Z,9.60
2019-05-06T15:43:33.430Z,9.60
2019-05-06T15:46:03.363Z,9.50
2019-05-06T15:48:33.066Z,9.50
2019-05-06T15:51:02.181Z,9.40
2019-05-06T15:53:32.843Z,9.30
2019-05-06T15:56:01.220Z,9.10
2019-05-06T15:58:32.285Z,8.70
2019-05-06T16:01:02.933Z,8.70
2019-05-06T16:03:32.829Z,8.80
2019-05-06T16:06:01.985Z,9.10
2019-05-06T16:08:32.082Z,9.30
2019-05-06T16:11:02.868Z,9.40
2019-05-06T16:13:31.428Z,9.40
2019-05-06T16:16:02.762Z,9.40
2019-05-06T16:18:32.578Z,9.20
2019-05-06T16:21:02.930Z,9.20
2019-05-06T16:23:33.224Z,9.20
2019-05-06T16:26:02.988Z,9.30
2019-05-06T16:28:32.098Z,9.30
2019-05-06T16:31:02.459Z,9.40
2019-05-06T16:33:32.593Z,9.40
2019-05-06T16:36:01.832Z,9.30
2019-05-06T16:38:32.303Z,9.40
2019-05-06T16:41:10.314Z,9.40
2019-05-06T16:43:33.674Z,9.30
2019-05-06T16:46:03.291Z,9.20
2019-05-06T16:48:32.183Z,9.10
2019-05-06T16:51:04.595Z,9.10
2019-05-06T16:53:34.479Z,9.00
2019-05-06T16:56:03.467Z,8.90
2019-05-06T16:58:49.833Z,8.80
2019-05-06T17:01:18.679Z,8.70
2019-05-06T17:03:49.116Z,8.70
2019-05-06T17:06:32.961Z,8.60
2019-05-06T17:09:16.782Z,8.60
2019-05-06T17:11:34.692Z,8.50
2019-05-06T17:14:04.139Z,8.50
2019-05-06T17:16:33.992Z,8.50
2019-05-06T17:19:04.469Z,8.40
2019-05-06T17:21:33.764Z,8.30
2019-05-06T17:24:04.532Z,8.30
2019-05-06T17:26:33.954Z,8.20
2019-05-06T17:29:22.839Z,8.20
2019-05-06T17:32:02.678Z,8.10
2019-05-06T17:34:33.268Z,8.10
2019-05-06T17:37:20.212Z,7.80
2019-05-06T17:40:04.468Z,7.70
2019-05-06T17:42:22.547Z,7.70
2019-05-06T17:44:50.727Z,7.70
2019-05-06T17:47:32.088Z,7.10
2019-05-06T17:50:02.872Z,7.70
2019-05-06T17:52:33.414Z,7.70
2019-05-06T17:55:02.958Z,7.70
2019-05-06T17:57:33.169Z,7.70
2019-05-06T18:00:03.277Z,7.70
2019-05-06T18:02:33.057Z,7.60
2019-05-06T18:05:02.849Z,7.60
2019-05-06T18:07:32.709Z,7.50
2019-05-06T18:10:03.068Z,7.60
2019-05-06T18:12:32.849Z,7.60
2019-05-06T18:15:02.761Z,7.60
2019-05-06T18:17:33.178Z,7.60
2019-05-06T18:20:03.094Z,7.60
2019-05-06T18:22:32.772Z,7.60
2019-05-06T18:25:02.367Z,7.60
2019-05-06T18:27:32.225Z,7.60
2019-05-06T18:30:13.371Z,7.60
2019-05-06T18:32:33.941Z,7.60
2019-05-06T18:35:03.091Z,7.60
2019-05-06T18:37:33.244Z,7.50
2019-05-06T18:40:02.729Z,7.40
2019-05-06T18:42:33.005Z,7.40
2019-05-06T18:45:02.858Z,7.40
2019-05-06T18:47:33.047Z,7.40
2019-05-06T18:50:02.530Z,7.30
2019-05-06T18:52:32.264Z,7.30
2019-05-06T18:55:01.842Z,7.30
2019-05-06T18:57:32.478Z,7.20
2019-05-06T19:00:03.131Z,7.30
2019-05-06T19:02:32.548Z,7.20
2019-05-06T19:05:06.134Z,7.20
2019-05-06T19:07:35.129Z,7.20
2019-05-06T19:10:06.033Z,7.20
2019-05-06T19:12:40.410Z,7.30
2019-05-06T19:15:07.016Z,7.30
2019-05-06T19:17:36.123Z,7.40
2019-05-06T19:20:07.477Z,7.30
2019-05-06T19:22:36.285Z,7.30
2019-05-06T19:25:05.993Z,7.30
2019-05-06T19:27:34.724Z,7.30
2019-05-06T19:30:05.049Z,7.30
2019-05-06T19:32:35.238Z,7.30
2019-05-06T19:35:04.817Z,7.30
2019-05-06T19:37:33.562Z,7.30
2019-05-06T19:40:03.030Z,7.30
2019-05-06T19:42:43.658Z,7.30
2019-05-06T19:45:02.641Z,7.30
2019-05-06T19:47:31.922Z,7.30
2019-05-06T19:50:02.831Z,7.30
2019-05-06T19:52:32.673Z,7.30
2019-05-06T19:55:03.134Z,7.30
2019-05-06T19:57:32.356Z,7.20
2019-05-06T20:00:03.300Z,7.30
2019-05-06T20:02:32.069Z,7.30
2019-05-06T20:05:03.192Z,7.20
2019-05-06T20:07:42.879Z,7.20
2019-05-06T20:10:19.471Z,7.20
2019-05-06T20:13:01.095Z,7.20
2019-05-06T20:15:33.605Z,7.20
2019-05-06T20:18:03.171Z,7.20
2019-05-06T20:20:34.843Z,7.20
2019-05-06T20:23:02.797Z,7.10
2019-05-06T20:25:31.769Z,7.10
2019-05-06T20:28:02.367Z,7.10
2019-05-06T20:30:32.698Z,7.00
2019-05-06T20:33:01.626Z,7.00
2019-05-06T20:35:32.197Z,7.00
2019-05-06T20:38:02.620Z,7.00
2019-05-06T20:40:32.767Z,7.00
2019-05-06T20:43:14.142Z,7.00
2019-05-06T20:45:34.824Z,7.00
2019-05-06T20:48:03.197Z,7.00
2019-05-06T20:50:32.258Z,7.00
2019-05-06T20:53:01.174Z,7.00
2019-05-06T20:55:33.281Z,6.90
2019-05-06T20:58:02.727Z,8.60
2019-05-06T21:00:33.288Z,6.90
2019-05-06T21:03:01.440Z,6.90
2019-05-06T21:05:32.209Z,6.90
2019-05-06T21:08:02.215Z,7.20
2019-05-06T21:10:32.984Z,6.80
2019-05-06T21:13:02.312Z,6.80
2019-05-06T21:15:32.349Z,6.70
2019-05-06T21:18:04.154Z,6.70
2019-05-06T21:20:33.047Z,6.80
2019-05-06T21:23:02.345Z,6.70
2019-05-06T21:25:32.135Z,6.80
2019-05-06T21:28:02.917Z,6.70
2019-05-06T21:30:32.370Z,6.70
2019-05-06T21:33:01.225Z,6.70
2019-05-06T21:35:29.944Z,6.60
2019-05-06T21:37:58.752Z,6.60
2019-05-06T21:40:27.541Z,6.70
2019-05-06T21:42:56.169Z,6.70
2019-05-06T21:45:24.926Z,6.70
2019-05-06T21:47:53.672Z,6.70
2019-05-06T21:50:22.876Z,6.70
2019-05-06T21:52:51.579Z,6.70
2019-05-06T21:55:22.554Z,6.70
2019-05-06T21:57:52.794Z,6.60
2019-05-06T22:00:23.453Z,6.60
2019-05-06T22:02:52.960Z,6.60
2019-05-06T22:05:22.620Z,6.50
2019-05-06T22:07:52.571Z,6.50
2019-05-06T22:10:22.779Z,6.50
2019-05-06T22:12:52.729Z,6.40
2019-05-06T22:15:22.752Z,6.40
2019-05-06T22:17:54.284Z,6.30
2019-05-06T22:20:23.743Z,6.30
2019-05-06T22:22:52.418Z,6.30
2019-05-06T22:25:22.085Z,6.30
2019-05-06T22:27:51.956Z,6.30
2019-05-06T22:30:23.670Z,6.30
2019-05-06T22:32:52.697Z,6.30
2019-05-06T22:35:23.078Z,6.30
2019-05-06T22:37:52.919Z,6.20
2019-05-06T22:40:23.799Z,6.20
2019-05-06T22:42:52.760Z,6.20
2019-05-06T22:45:22.327Z,6.20
2019-05-06T22:47:51.062Z,6.20
2019-05-06T22:50:19.852Z,6.20
2019-05-06T22:52:48.685Z,6.10
2019-05-06T22:55:17.400Z,6.10
2019-05-06T22:57:46.109Z,6.20
2019-05-06T23:00:22.406Z,6.20
2019-05-06T23:02:58.196Z,6.10
2019-05-06T23:05:26.946Z,6.00
2019-05-06T23:07:55.796Z,6.10
2019-05-06T23:10:24.848Z,6.10
2019-05-06T23:12:53.760Z,6.10
2019-05-06T23:15:22.524Z,6.10
2019-05-06T23:17:52.732Z,6.10
2019-05-06T23:20:24.245Z,6.00
2019-05-06T23:22:51.855Z,6.00
2019-05-06T23:25:22.066Z,6.00
2019-05-06T23:27:52.988Z,6.00
2019-05-06T23:30:23.451Z,6.00
2019-05-06T23:32:52.987Z,6.00
2019-05-06T23:35:22.070Z,6.00
2019-05-06T23:38:26.565Z,5.90
2019-05-06T23:41:32.703Z,5.90
2019-05-06T23:44:45.597Z,5.90
2019-05-06T23:47:43.600Z,5.90
2019-05-06T23:50:48.020Z,5.90
2019-05-06T23:53:52.446Z,5.90
2019-05-06T23:56:44.708Z,5.90
2019-05-06T23:59:17.972Z,5.90
